Time;durP1;ratioP1;P1;durP2;ratioP2;P2;SDS_P1;SDS_P2;PMS_P1;PMS_P2;Temp;Humidity;BMP_temperature;BMP_pressure;BME280_temperature;BME280_humidity;BME280_pressure;Samples;Min_cycle;Max_cycle;Signal;HPM_P1;HPM_P2
2021/08/21 00:02:08;;;;;;;11.35;6.47;;;;;;;-145.01;100.00;64805.59;4995686;28;20041;-63
2021/08/21 00:04:37;;;;;;;12.45;6.05;;;;;;;-145.01;100.00;64805.59;4995111;28;20027;-63
2021/08/21 00:07:05;;;;;;;10.82;6.18;;;;;;;-145.01;100.00;64805.59;4995787;28;20042;-64
2021/08/21 00:09:35;;;;;;;12.05;6.20;;;;;;;-145.01;100.00;64805.59;4995759;28;20125;-63
2021/08/21 00:12:00;;;;;;;12.60;5.57;;;;;;;-145.01;100.00;64805.59;4995562;28;20121;-63
2021/08/21 00:14:26;;;;;;;9.25;6.05;;;;;;;-145.01;100.00;64805.59;4995850;28;20014;-63
2021/08/21 00:16:51;;;;;;;13.10;5.93;;;;;;;-145.01;100.00;64805.59;4994128;28;20449;-64
2021/08/21 00:19:17;;;;;;;15.25;6.95;;;;;;;-145.01;100.00;64805.59;4995801;28;20022;-63
2021/08/21 00:21:42;;;;;;;14.02;8.32;;;;;;;-145.01;100.00;64805.59;4993815;28;20038;-63
2021/08/21 00:24:08;;;;;;;14.27;8.13;;;;;;;-145.01;100.00;64805.59;4995734;28;20029;-63
2021/08/21 00:26:33;;;;;;;15.23;8.23;;;;;;;-145.01;100.00;64805.59;4995398;28;20039;-63
2021/08/21 00:28:59;;;;;;;12.48;8.30;;;;;;;-145.01;100.00;64805.59;4995438;28;20033;-63
2021/08/21 00:31:24;;;;;;;16.98;8.73;;;;;;;-145.01;100.00;64805.59;4995207;28;20035;-63
2021/08/21 00:33:49;;;;;;;14.45;7.25;;;;;;;-145.01;100.00;64805.59;4994527;28;20022;-63
2021/08/21 00:36:15;;;;;;;12.35;8.20;;;;;;;-145.01;100.00;64805.59;4995146;28;20042;-63
2021/08/21 00:38:40;;;;;;;19.17;10.15;;;;;;;-145.01;100.00;64805.59;4995489;28;20023;-63
2021/08/21 00:41:06;;;;;;;20.67;10.05;;;;;;;-145.01;100.00;64805.59;4994960;28;20038;-63
2021/08/21 00:43:34;;;;;;;17.95;8.90;;;;;;;-145.01;100.00;64805.59;4995429;28;20034;-63
2021/08/21 00:45:59;;;;;;;16.98;9.65;;;;;;;-145.01;100.00;64805.59;4994767;28;20045;-63
2021/08/21 00:48:24;;;;;;;21.85;9.50;;;;;;;-145.01;100.00;64805.59;4995262;28;20030;-63
2021/08/21 00:50:50;;;;;;;15.75;8.80;;;;;;;-145.01;100.00;64805.59;4994875;28;20038;-63
2021/08/21 00:53:15;;;;;;;10.40;6.80;;;;;;;-145.01;100.00;64805.59;4995104;28;20030;-64
2021/08/21 00:55:41;;;;;;;22.90;8.98;;;;;;;-145.01;100.00;64805.59;4994947;28;20042;-63
2021/08/21 00:58:06;;;;;;;14.85;9.00;;;;;;;-145.01;100.00;64805.59;4995053;28;20054;-63
2021/08/21 01:00:32;;;;;;;14.65;8.63;;;;;;;-145.01;100.00;64805.59;4994555;28;20556;-63
2021/08/21 01:02:58;;;;;;;15.23;8.43;;;;;;;-145.01;100.00;64805.59;4994948;28;20026;-63
2021/08/21 01:05:23;;;;;;;15.07;8.65;;;;;;;-145.01;100.00;64805.59;4994464;28;20069;-63
2021/08/21 01:07:49;;;;;;;12.63;7.60;;;;;;;-145.01;100.00;64805.59;4993671;28;20084;-63
2021/08/21 01:10:16;;;;;;;12.30;7.32;;;;;;;-145.01;100.00;64805.59;4994307;28;20050;-64
2021/08/21 01:12:43;;;;;;;15.40;8.77;;;;;;;-145.01;100.00;64805.59;4994884;28;20023;-63
2021/08/21 01:15:09;;;;;;;13.07;8.30;;;;;;;-145.01;100.00;64805.59;4994284;28;20050;-64
2021/08/21 01:17:37;;;;;;;15.98;9.63;;;;;;;-145.01;100.00;64805.59;4994794;28;20030;-63
2021/08/21 01:20:03;;;;;;;19.83;9.18;;;;;;;-145.01;100.00;64805.59;4994096;28;20091;-63
2021/08/21 01:22:29;;;;;;;13.00;7.63;;;;;;;-145.01;100.00;64805.59;4994616;28;20034;-63
2021/08/21 01:24:54;;;;;;;17.00;8.65;;;;;;;-145.01;100.00;64805.59;4994395;28;20077;-64
2021/08/21 01:27:27;;;;;;;18.73;10.48;;;;;;;-145.01;100.00;64805.59;4993921;28;20044;-63
2021/08/21 01:29:53;;;;;;;20.35;12.27;;;;;;;-145.01;100.00;64805.59;4994721;28;20038;-63
2021/08/21 01:32:19;;;;;;;18.50;11.20;;;;;;;-145.01;100.00;64805.59;4993894;28;20393;-63
2021/08/21 01:34:44;;;;;;;19.50;11.05;;;;;;;-145.01;100.00;64805.59;4992730;28;20030;-63
2021/08/21 01:37:10;;;;;;;19.77;11.15;;;;;;;-145.01;100.00;64805.59;4993939;28;20035;-63
2021/08/21 01:39:35;;;;;;;20.50;10.80;;;;;;;-145.01;100.00;64805.59;4994328;28;20113;-63
2021/08/21 01:42:01;;;;;;;25.77;12.98;;;;;;;-145.01;100.00;64805.59;4993386;28;20363;-63
2021/08/21 01:44:26;;;;;;;20.58;12.27;;;;;;;-145.01;100.00;64805.59;4994466;28;20053;-62
2021/08/21 01:46:51;;;;;;;20.23;12.85;;;;;;;-145.01;100.00;64805.59;4993775;28;20038;-62
2021/08/21 01:49:18;;;;;;;18.95;9.43;;;;;;;-145.01;100.00;64805.59;4994348;28;20033;-63
2021/08/21 01:51:45;;;;;;;17.10;7.70;;;;;;;-145.01;100.00;64805.59;4993792;28;20046;-63
2021/08/21 01:54:14;;;;;;;16.65;8.73;;;;;;;-145.01;100.00;64805.59;4976888;28;20090;-63
2021/08/21 01:56:44;;;;;;;18.63;8.63;;;;;;;-145.01;100.00;64805.59;4993650;28;20493;-63
2021/08/21 01:59:17;;;;;;;21.27;10.75;;;;;;;-145.01;100.00;64805.59;4994206;28;20081;-63
2021/08/21 02:01:43;;;;;;;14.50;9.38;;;;;;;-145.01;100.00;64805.59;4992417;28;20038;-63
2021/08/21 02:04:08;;;;;;;17.92;8.23;;;;;;;-145.01;100.00;64805.59;4993834;28;20122;-63
2021/08/21 02:06:34;;;;;;;15.27;9.05;;;;;;;-145.01;100.00;64805.59;4975888;28;20075;-63
2021/08/21 02:08:59;;;;;;;14.90;8.98;;;;;;;-145.01;100.00;64805.59;4993756;28;20404;-63
2021/08/21 02:11:24;;;;;;;11.70;7.40;;;;;;;-145.01;100.00;64805.59;4993572;28;20497;-63
2021/08/21 02:13:50;;;;;;;12.93;6.57;;;;;;;-145.01;100.00;64805.59;4993823;28;20067;-63
2021/08/21 02:16:15;;;;;;;10.85;5.78;;;;;;;-145.01;100.00;64805.59;4993425;28;20034;-63
2021/08/21 02:18:41;;;;;;;10.07;6.43;;;;;;;-145.01;100.00;64805.59;4993664;28;20031;-63
2021/08/21 02:21:06;;;;;;;13.45;6.00;;;;;;;-145.01;100.00;64805.59;4991942;28;20104;-63
2021/08/21 02:23:32;;;;;;;11.05;5.90;;;;;;;-145.01;100.00;64805.59;4993634;28;20029;-63
2021/08/21 02:25:57;;;;;;;13.52;6.35;;;;;;;-145.01;100.00;64805.59;4991817;28;20092;-63
2021/08/21 02:28:22;;;;;;;15.52;6.90;;;;;;;-145.01;100.00;64805.59;4994007;28;20026;-63
2021/08/21 02:30:48;;;;;;;14.15;6.93;;;;;;;-145.01;100.00;64805.59;4993312;28;20031;-63
2021/08/21 02:33:13;;;;;;;16.08;7.28;;;;;;;-145.01;100.00;64805.59;4993533;28;20085;-63
2021/08/21 02:35:39;;;;;;;15.05;7.97;;;;;;;-145.01;100.00;64805.59;4993201;28;20049;-64
2021/08/21 02:38:05;;;;;;;15.07;7.72;;;;;;;-145.01;100.00;64805.59;4993449;28;20018;-62
2021/08/21 02:40:30;;;;;;;11.57;6.93;;;;;;;-145.01;100.00;64805.59;4991724;28;20034;-62
2021/08/21 02:42:56;;;;;;;10.93;7.03;;;;;;;-145.01;100.00;64805.59;4993462;28;20029;-62
2021/08/21 02:45:21;;;;;;;14.60;7.22;;;;;;;-145.01;100.00;64805.59;4993093;28;20042;-64
2021/08/21 02:47:47;;;;;;;16.42;8.45;;;;;;;-145.01;100.00;64805.59;4993318;28;20027;-62
2021/08/21 02:50:12;;;;;;;15.68;8.45;;;;;;;-145.01;100.00;64805.59;4991727;28;20026;-65
2021/08/21 02:52:37;;;;;;;12.07;7.30;;;;;;;-145.01;100.00;64805.59;4993395;28;20018;-64
2021/08/21 02:55:03;;;;;;;13.85;7.80;;;;;;;-145.01;100.00;64805.59;4985218;28;20034;-65
2021/08/21 02:57:29;;;;;;;15.18;6.85;;;;;;;-145.01;100.00;64805.59;4974047;28;20374;-64
2021/08/21 02:59:54;;;;;;;10.60;7.00;;;;;;;-145.01;100.00;64805.59;4974031;28;20019;-63
2021/08/21 03:02:20;;;;;;;15.27;7.38;;;;;;;-145.01;100.00;64805.59;4973340;28;20035;-63
2021/08/21 03:04:45;;;;;;;15.13;7.70;;;;;;;-145.01;100.00;64805.59;4973753;28;20027;-63
2021/08/21 03:07:11;;;;;;;11.50;6.60;;;;;;;-145.01;100.00;64805.59;4973434;28;20042;-63
2021/08/21 03:09:36;;;;;;;13.23;8.05;;;;;;;-145.01;100.00;64805.59;4973419;28;20489;-63
2021/08/21 03:12:02;;;;;;;15.30;8.07;;;;;;;-145.01;100.00;64805.59;4973397;28;20034;-63
2021/08/21 03:14:27;;;;;;;15.45;8.57;;;;;;;-145.01;100.00;64805.59;4973809;28;20524;-62
2021/08/21 03:16:52;;;;;;;9.63;6.00;;;;;;;-145.01;100.00;64805.59;4972035;28;20035;-63
2021/08/21 03:19:18;;;;;;;14.57;8.65;;;;;;;-145.01;100.00;64805.59;4973760;28;20023;-62
2021/08/21 03:21:44;;;;;;;19.55;9.00;;;;;;;-145.01;100.00;64805.59;4973324;28;20042;-63
2021/08/21 03:24:09;;;;;;;10.05;6.53;;;;;;;-145.01;100.00;64805.59;4973560;28;20515;-62
2021/08/21 03:26:35;;;;;;;12.60;6.82;;;;;;;-145.01;100.00;64805.59;4973069;28;20050;-63
2021/08/21 03:29:00;;;;;;;11.80;6.13;;;;;;;-145.01;100.00;64805.59;4973574;28;20030;-63
2021/08/21 03:31:25;;;;;;;13.55;6.15;;;;;;;-145.01;100.00;64805.59;4973194;28;20042;-63
2021/08/21 03:33:51;;;;;;;12.10;6.95;;;;;;;-145.01;100.00;64805.59;4973711;28;20489;-63
2021/08/21 03:36:16;;;;;;;9.20;6.10;;;;;;;-145.01;100.00;64805.59;4971796;28;20046;-63
2021/08/21 03:38:42;;;;;;;12.73;7.05;;;;;;;-145.01;100.00;64805.59;4973497;28;20489;-63
2021/08/21 03:41:07;;;;;;;13.02;6.70;;;;;;;-145.01;100.00;64805.59;4972957;28;20038;-63
2021/08/21 03:43:33;;;;;;;10.10;6.22;;;;;;;-145.01;100.00;64805.59;4973446;28;20243;-63
2021/08/21 03:45:59;;;;;;;11.50;6.50;;;;;;;-145.01;100.00;64805.59;5004078;28;20086;-63
2021/08/21 03:48:24;;;;;;;14.65;6.75;;;;;;;-145.01;100.00;64805.59;4973529;28;20023;-63
2021/08/21 03:50:49;;;;;;;11.35;7.05;;;;;;;-145.01;100.00;64805.59;4985057;28;20053;-63
2021/08/21 03:53:15;;;;;;;16.85;9.45;;;;;;;-145.01;100.00;64805.59;4992859;28;20023;-63
2021/08/21 03:55:40;;;;;;;15.73;7.43;;;;;;;-145.01;100.00;64805.59;4991091;28;20077;-63
2021/08/21 03:58:06;;;;;;;10.77;6.40;;;;;;;-145.01;100.00;64805.59;4996514;28;20553;-63
2021/08/21 04:00:32;;;;;;;11.88;6.50;;;;;;;-145.01;100.00;64805.59;4995958;28;20062;-63
2021/08/21 04:02:58;;;;;;;11.88;6.38;;;;;;;-145.01;100.00;64805.59;4996466;28;20050;-62
2021/08/21 04:05:24;;;;;;;12.75;6.28;;;;;;;-145.01;100.00;64805.59;4995610;28;20037;-63
2021/08/21 04:07:50;;;;;;;22.02;8.45;;;;;;;-145.01;100.00;64805.59;4996149;28;20022;-63
2021/08/21 04:10:15;;;;;;;21.58;8.52;;;;;;;-145.01;100.00;64805.59;4994469;28;20055;-63
2021/08/21 04:12:40;;;;;;;37.78;11.18;;;;;;;-145.01;100.00;64805.59;4996205;28;20369;-63
2021/08/21 04:15:07;;;;;;;83.90;11.55;;;;;;;-145.01;100.00;64805.59;4994505;28;20050;-63
2021/08/21 04:17:33;;;;;;;73.90;11.00;;;;;;;-145.01;100.00;64805.59;4996042;28;20026;-63
2021/08/21 04:19:58;;;;;;;111.68;11.85;;;;;;;-145.01;100.00;64805.59;4995940;28;20354;-63
2021/08/21 04:22:24;;;;;;;65.88;11.75;;;;;;;-145.01;100.00;64805.59;4995535;28;20066;-63
2021/08/21 04:24:49;;;;;;;65.80;11.40;;;;;;;-145.01;100.00;64805.59;4995750;28;20026;-63
2021/08/21 04:27:14;;;;;;;62.47;10.55;;;;;;;-145.01;100.00;64805.59;4994005;28;20046;-63
2021/08/21 04:29:40;;;;;;;81.32;11.68;;;;;;;-145.01;100.00;64805.59;4995955;28;20018;-63
2021/08/21 04:32:06;;;;;;;72.30;11.93;;;;;;;-145.01;100.00;64805.59;4995297;28;20038;-63
2021/08/21 04:34:34;;;;;;;55.53;10.63;;;;;;;-145.01;100.00;64805.59;4995651;28;20022;-62
2021/08/21 04:37:02;;;;;;;43.00;10.95;;;;;;;-145.01;100.00;64805.59;4995126;28;20035;-62
2021/08/21 04:39:27;;;;;;;45.97;11.40;;;;;;;-145.01;100.00;64805.59;4995763;28;20038;-62
2021/08/21 04:41:53;;;;;;;41.05;10.27;;;;;;;-145.01;100.00;64805.59;4995219;28;20504;-63
2021/08/21 04:44:18;;;;;;;36.38;10.90;;;;;;;-145.01;100.00;64805.59;4995459;28;20061;-62
2021/08/21 04:46:44;;;;;;;29.67;10.50;;;;;;;-145.01;100.00;64805.59;4994988;28;20094;-62
2021/08/21 04:49:10;;;;;;;32.78;11.45;;;;;;;-145.01;100.00;64805.59;4995474;28;20064;-62
2021/08/21 04:51:35;;;;;;;29.13;11.95;;;;;;;-145.01;100.00;64805.59;4993583;28;20489;-63
2021/08/21 04:54:00;;;;;;;24.85;12.60;;;;;;;-145.01;100.00;64805.59;4995705;28;20330;-62
2021/08/21 04:56:26;;;;;;;20.98;11.95;;;;;;;-145.01;100.00;64805.59;4993509;28;20477;-62
2021/08/21 04:58:51;;;;;;;24.13;11.30;;;;;;;-145.01;100.00;64805.59;4995252;28;20029;-62
2021/08/21 05:01:17;;;;;;;15.23;9.57;;;;;;;-145.01;100.00;64805.59;4994810;28;20497;-62
2021/08/21 05:03:42;;;;;;;15.30;8.88;;;;;;;-145.01;100.00;64805.59;4995412;28;20037;-62
2021/08/21 05:06:08;;;;;;;13.68;8.80;;;;;;;-145.01;100.00;64805.59;4994627;28;20092;-63
2021/08/21 05:08:33;;;;;;;12.27;7.93;;;;;;;-145.01;100.00;64805.59;4994028;28;20030;-63
2021/08/21 05:10:58;;;;;;;11.18;7.30;;;;;;;-145.01;100.00;64805.59;4993454;28;20034;-63
2021/08/21 05:13:24;;;;;;;12.57;7.60;;;;;;;-145.01;100.00;64805.59;4993903;28;20385;-63
2021/08/21 05:15:49;;;;;;;12.43;7.45;;;;;;;-145.01;100.00;64805.59;4994519;28;20489;-63
2021/08/21 05:18:22;;;;;;;13.50;8.15;;;;;;;-145.01;100.00;64805.59;4993675;28;20019;-63
2021/08/21 05:20:52;;;;;;;14.07;7.43;;;;;;;-145.01;100.00;64805.59;4994497;28;20034;-63
2021/08/21 05:23:17;;;;;;;17.92;8.00;;;;;;;-145.01;100.00;64805.59;4994914;28;20030;-63
2021/08/21 05:25:46;;;;;;;11.20;7.15;;;;;;;-145.01;100.00;64805.59;4994490;28;20042;-64
2021/08/21 05:28:11;;;;;;;18.55;8.70;;;;;;;-145.01;100.00;64805.59;4994804;28;20389;-63
2021/08/21 05:30:39;;;;;;;16.92;8.48;;;;;;;-145.01;100.00;64805.59;4993061;28;20034;-64
2021/08/21 05:33:11;;;;;;;18.05;8.25;;;;;;;-145.01;100.00;64805.59;4994610;28;20026;-63
2021/08/21 05:35:36;;;;;;;17.58;8.25;;;;;;;-145.01;100.00;64805.59;4994296;28;20039;-64
2021/08/21 05:38:02;;;;;;;15.43;9.20;;;;;;;-145.01;100.00;64805.59;4994600;28;20092;-64
2021/08/21 05:40:28;;;;;;;16.80;8.75;;;;;;;-145.01;100.00;64805.59;4994071;28;20038;-63
2021/08/21 05:42:53;;;;;;;17.58;8.57;;;;;;;-145.01;100.00;64805.59;4994070;28;20034;-63
2021/08/21 05:45:19;;;;;;;16.48;8.77;;;;;;;-145.01;100.00;64805.59;4976451;28;20031;-63
2021/08/21 05:47:45;;;;;;;14.45;8.52;;;;;;;-145.01;100.00;64805.59;4993031;28;20022;-64
2021/08/21 05:50:11;;;;;;;17.30;9.15;;;;;;;-145.01;100.00;64805.59;4994127;28;20026;-63
2021/08/21 05:52:36;;;;;;;20.95;8.60;;;;;;;-145.01;100.00;64805.59;4994125;28;20026;-64
2021/08/21 05:55:02;;;;;;;28.55;9.60;;;;;;;-145.01;100.00;64805.59;4993772;28;20030;-63
2021/08/21 05:57:27;;;;;;;19.23;10.57;;;;;;;-145.01;100.00;64805.59;4992826;28;20026;-63
2021/08/21 05:59:53;;;;;;;15.55;8.82;;;;;;;-145.01;100.00;64805.59;4994012;28;20034;-64
2021/08/21 06:02:18;;;;;;;15.57;8.73;;;;;;;-145.01;100.00;64805.59;4992333;28;20042;-63
2021/08/21 06:04:44;;;;;;;13.85;8.73;;;;;;;-145.01;100.00;64805.59;4992684;28;20030;-64
2021/08/21 06:07:09;;;;;;;15.55;9.35;;;;;;;-145.01;100.00;64805.59;4992267;28;20034;-64
2021/08/21 06:09:35;;;;;;;14.25;9.38;;;;;;;-145.01;100.00;64805.59;4993715;28;20046;-64
2021/08/21 06:12:00;;;;;;;18.17;9.25;;;;;;;-145.01;100.00;64805.59;4993565;28;20062;-64
2021/08/21 06:14:25;;;;;;;15.95;9.93;;;;;;;-145.01;100.00;64805.59;4993992;28;20030;-64
2021/08/21 06:16:51;;;;;;;18.42;10.05;;;;;;;-145.01;100.00;64805.59;4993552;28;20046;-63
2021/08/21 06:19:16;;;;;;;54.60;9.88;;;;;;;-145.01;100.00;64805.59;4993386;28;20385;-64
2021/08/21 06:21:44;;;;;;;57.33;10.10;;;;;;;-145.01;100.00;64805.59;4993421;28;20042;-64
2021/08/21 06:24:10;;;;;;;18.17;9.82;;;;;;;-145.01;100.00;64805.59;4993693;28;20027;-63
2021/08/21 06:26:36;;;;;;;18.45;9.00;;;;;;;-145.01;100.00;64805.59;4993133;28;20377;-64
2021/08/21 06:29:01;;;;;;;15.13;9.18;;;;;;;-145.01;100.00;64805.59;4993618;28;20026;-63
2021/08/21 06:31:26;;;;;;;15.85;8.68;;;;;;;-145.01;100.00;64805.59;4993134;28;20038;-64
2021/08/21 06:33:52;;;;;;;11.80;7.32;;;;;;;-145.01;100.00;64805.59;4993579;28;20034;-64
2021/08/21 06:36:17;;;;;;;15.95;8.65;;;;;;;-145.01;100.00;64805.59;4991821;28;20037;-64
2021/08/21 06:38:43;;;;;;;14.60;8.07;;;;;;;-145.01;100.00;64805.59;4993791;28;20037;-64
2021/08/21 06:41:08;;;;;;;19.65;10.70;;;;;;;-145.01;100.00;64805.59;4993180;28;20445;-64
2021/08/21 06:43:33;;;;;;;18.45;9.27;;;;;;;-145.01;100.00;64805.59;4993432;28;20026;-64
2021/08/21 06:45:59;;;;;;;18.95;8.98;;;;;;;-145.01;100.00;64805.59;4993117;28;20031;-64
2021/08/21 06:48:25;;;;;;;19.92;9.25;;;;;;;-145.01;100.00;64805.59;4993494;28;20029;-64
2021/08/21 06:50:50;;;;;;;23.00;9.43;;;;;;;-145.01;100.00;64805.59;4991831;28;20042;-64
2021/08/21 06:53:15;;;;;;;16.77;8.02;;;;;;;-145.01;100.00;64805.59;4993410;28;20022;-64
2021/08/21 06:55:41;;;;;;;18.33;8.57;;;;;;;-145.01;100.00;64805.59;4992792;28;20030;-64
2021/08/21 06:58:07;;;;;;;15.32;9.05;;;;;;;-145.01;100.00;64805.59;4992116;28;20038;-64
2021/08/21 07:00:33;;;;;;;33.88;9.60;;;;;;;-145.01;100.00;64805.59;4993302;28;20050;-64
2021/08/21 07:02:58;;;;;;;18.05;8.65;;;;;;;-145.01;100.00;64805.59;4993166;28;20567;-64
2021/08/21 07:05:24;;;;;;;21.50;10.07;;;;;;;-145.01;100.00;64805.59;4992610;28;20030;-63
2021/08/21 07:07:49;;;;;;;17.05;8.52;;;;;;;-145.01;100.00;64805.59;4992139;28;20109;-64
2021/08/21 07:10:15;;;;;;;12.73;8.43;;;;;;;-145.01;100.00;64805.59;4991178;28;20100;-64
2021/08/21 07:12:40;;;;;;;21.38;9.80;;;;;;;-145.01;100.00;64805.59;4991796;28;20523;-64
2021/08/21 07:15:07;;;;;;;23.88;9.43;;;;;;;-145.01;100.00;64805.59;4992562;28;20027;-64
2021/08/21 07:17:33;;;;;;;26.60;9.88;;;;;;;-145.01;100.00;64805.59;4993038;28;20018;-64
2021/08/21 07:19:58;;;;;;;29.58;9.88;;;;;;;-145.01;100.00;64805.59;4992936;28;20420;-64
2021/08/21 07:22:23;;;;;;;14.88;9.70;;;;;;;-145.01;100.00;64805.59;4992586;28;20373;-64
2021/08/21 07:24:49;;;;;;;17.60;9.70;;;;;;;-145.01;100.00;64805.59;4993132;28;20026;-64
2021/08/21 07:27:14;;;;;;;33.22;10.60;;;;;;;-145.01;100.00;64805.59;4992459;28;20034;-64
2021/08/21 07:29:40;;;;;;;20.33;10.13;;;;;;;-145.01;100.00;64805.59;4992910;28;20037;-64
2021/08/21 07:32:05;;;;;;;12.38;7.93;;;;;;;-145.01;100.00;64805.59;4994675;28;20053;-64
2021/08/21 07:34:31;;;;;;;13.50;8.93;;;;;;;-145.01;100.00;64805.59;4996547;28;20354;-64
2021/08/21 07:36:57;;;;;;;12.90;7.47;;;;;;;-145.01;100.00;64805.59;4996253;28;20038;-64
2021/08/21 07:39:22;;;;;;;13.93;8.93;;;;;;;-145.01;100.00;64805.59;4995379;28;20148;-64
2021/08/21 07:41:48;;;;;;;16.75;8.90;;;;;;;-145.01;100.00;64805.59;4996176;28;20050;-63
2021/08/21 07:44:13;;;;;;;16.17;8.35;;;;;;;-145.01;100.00;64805.59;4996589;28;20026;-63
2021/08/21 07:46:39;;;;;;;15.88;9.20;;;;;;;-145.01;100.00;64805.59;4995896;28;20042;-64
2021/08/21 07:49:05;;;;;;;16.08;8.57;;;;;;;-145.01;100.00;64805.59;4996537;28;20109;-63
2021/08/21 07:51:30;;;;;;;13.57;8.60;;;;;;;-145.01;100.00;64805.59;4996118;28;20030;-63
2021/08/21 07:53:55;;;;;;;11.57;7.85;;;;;;;-145.01;100.00;64805.59;4996529;28;20022;-63
2021/08/21 07:56:21;;;;;;;15.00;8.90;;;;;;;-145.01;100.00;64805.59;4995923;28;20034;-64
2021/08/21 07:58:46;;;;;;;12.38;8.15;;;;;;;-145.01;100.00;64805.59;4995165;28;20030;-64
2021/08/21 08:01:12;;;;;;;11.60;7.85;;;;;;;-145.01;100.00;64805.59;4995695;28;20421;-64
2021/08/21 08:03:37;;;;;;;9.65;7.60;;;;;;;-145.01;100.00;64805.59;4996299;28;20038;-64
2021/08/21 08:06:03;;;;;;;10.07;7.45;;;;;;;-145.01;100.00;64805.59;4994076;28;20031;-64
2021/08/21 08:08:28;;;;;;;10.57;6.68;;;;;;;-145.01;100.00;64805.59;4996076;28;20033;-64
2021/08/21 08:10:54;;;;;;;10.27;7.50;;;;;;;-145.01;100.00;64805.59;4996021;28;20034;-64
2021/08/21 08:13:19;;;;;;;9.93;7.43;;;;;;;-145.01;100.00;64805.59;4996009;28;20022;-64
2021/08/21 08:15:45;;;;;;;12.00;7.35;;;;;;;-145.01;100.00;64805.59;4995669;28;20041;-64
2021/08/21 08:18:11;;;;;;;12.23;6.75;;;;;;;-145.01;100.00;64805.59;4996030;28;20034;-64
2021/08/21 08:20:36;;;;;;;9.63;6.97;;;;;;;-145.01;100.00;64805.59;4995537;28;20038;-63
2021/08/21 08:23:02;;;;;;;9.68;6.32;;;;;;;-145.01;100.00;64805.59;4994715;28;20034;-64
2021/08/21 08:25:28;;;;;;;13.13;6.88;;;;;;;-145.01;100.00;64805.59;4995405;28;20046;-64
2021/08/21 08:27:53;;;;;;;11.82;7.70;;;;;;;-145.01;100.00;64805.59;4994544;28;20031;-64
2021/08/21 08:30:19;;;;;;;11.43;7.20;;;;;;;-145.01;100.00;64805.59;4995550;28;20027;-64
2021/08/21 08:32:44;;;;;;;9.88;7.60;;;;;;;-145.01;100.00;64805.59;4995748;28;20022;-63
2021/08/21 08:35:10;;;;;;;12.30;7.50;;;;;;;-145.01;100.00;64805.59;4995415;28;20027;-64
2021/08/21 08:37:36;;;;;;;11.60;8.23;;;;;;;-145.01;100.00;64805.59;4995764;28;20025;-64
2021/08/21 08:40:01;;;;;;;10.43;7.97;;;;;;;-145.01;100.00;64805.59;4995316;28;20081;-64
2021/08/21 08:42:27;;;;;;;11.15;8.25;;;;;;;-145.01;100.00;64805.59;4995525;28;20077;-64
2021/08/21 08:44:52;;;;;;;12.85;8.20;;;;;;;-145.01;100.00;64805.59;4995298;28;20469;-64
2021/08/21 08:47:18;;;;;;;14.70;9.07;;;;;;;-145.01;100.00;64805.59;4994983;28;20474;-64
2021/08/21 08:49:48;;;;;;;10.57;8.32;;;;;;;-145.01;100.00;64805.59;4995307;28;20053;-63
2021/08/21 08:52:13;;;;;;;;;;;;;;;-145.01;100.00;64805.59;4995512;28;20048;-64
2021/08/21 08:54:39;;;;;;;11.60;7.80;;;;;;;-145.01;100.00;64805.59;4995460;28;19988;-63
2021/08/21 08:57:04;;;;;;;11.43;7.90;;;;;;;-145.01;100.00;64805.59;4993572;28;20492;-63
2021/08/21 08:59:30;;;;;;;11.38;8.00;;;;;;;-145.01;100.00;64805.59;4993868;28;20041;-64
2021/08/21 09:01:55;;;;;;;11.00;7.55;;;;;;;-145.01;100.00;64805.59;4994833;28;20046;-63
2021/08/21 09:04:23;;;;;;;9.35;7.07;;;;;;;-145.01;100.00;64805.59;4995013;28;20034;-64
2021/08/21 09:06:48;;;;;;;10.32;7.30;;;;;;;-145.01;100.00;64805.59;4994575;28;20492;-64
2021/08/21 09:09:15;;;;;;;10.35;6.85;;;;;;;-145.01;100.00;64805.59;4993710;28;20050;-64
2021/08/21 09:11:43;;;;;;;13.73;7.22;;;;;;;-145.01;100.00;64805.59;4994420;28;20354;-64
2021/08/21 09:14:18;;;;;;;10.40;6.90;;;;;;;-145.01;100.00;64805.59;4993715;28;20476;-64
2021/08/21 09:16:44;;;;;;;9.43;6.15;;;;;;;-145.01;100.00;64805.59;4994731;28;20456;-64
2021/08/21 09:19:09;;;;;;;11.38;7.13;;;;;;;-145.01;100.00;64805.59;4994913;28;20029;-64
2021/08/21 09:21:35;;;;;;;10.85;6.10;;;;;;;-145.01;100.00;64805.59;4994435;28;20125;-64
2021/08/21 09:24:00;;;;;;;7.72;6.03;;;;;;;-145.01;100.00;64805.59;4994931;28;20022;-64
2021/08/21 09:28:57;;;;;;;7.50;5.57;;;;;;;-145.01;100.00;64805.59;4993702;28;20126;-66
2021/08/21 09:31:25;;;;;;;8.30;6.30;;;;;;;-145.01;100.00;64805.59;4994452;28;20027;-64
2021/08/21 09:33:59;;;;;;;14.17;5.80;;;;;;;-145.01;100.00;64805.59;4993693;28;20026;-65
2021/08/21 09:36:41;;;;;;;7.55;4.88;;;;;;;-145.01;100.00;64805.59;4994378;28;20050;-64
2021/08/21 09:39:10;;;;;;;9.70;5.15;;;;;;;-145.01;100.00;64805.59;4994551;28;20034;-64
2021/08/21 09:41:55;;;;;;;8.48;5.68;;;;;;;-145.01;100.00;64805.59;4994147;28;20034;-64
2021/08/21 09:44:30;;;;;;;9.15;5.63;;;;;;;-145.01;100.00;64805.59;4994605;28;20409;-64
2021/08/21 09:47:25;;;;;;;11.23;5.57;;;;;;;-145.01;100.00;64805.59;4992424;28;20125;-65
2021/08/21 09:49:51;;;;;;;8.55;5.38;;;;;;;-145.01;100.00;64805.59;4994685;28;20034;-65
2021/08/21 09:52:17;;;;;;;8.40;4.97;;;;;;;-145.01;100.00;64805.59;4993853;28;20037;-64
2021/08/21 09:55:02;;;;;;;9.90;5.40;;;;;;;-145.01;100.00;64805.59;4994039;28;20325;-64
2021/08/21 09:57:28;;;;;;;8.43;5.10;;;;;;;-145.01;100.00;64805.59;4993902;28;20046;-64
2021/08/21 09:59:57;;;;;;;9.93;5.03;;;;;;;-145.01;100.00;64805.59;4993099;28;20030;-64
2021/08/21 10:02:23;;;;;;;8.32;4.80;;;;;;;-145.01;100.00;64805.59;4993775;28;20030;-64
2021/08/21 10:04:48;;;;;;;8.27;4.70;;;;;;;-145.01;100.00;64805.59;4976910;28;20061;-65
2021/08/21 10:07:20;;;;;;;6.80;4.80;;;;;;;-145.01;100.00;64805.59;4993617;28;20045;-64
2021/08/21 10:09:46;;;;;;;9.82;4.85;;;;;;;-145.01;100.00;64805.59;4993894;28;20049;-64
2021/08/21 10:12:12;;;;;;;8.02;4.85;;;;;;;-145.01;100.00;64805.59;4992443;28;20034;-64
2021/08/21 10:14:41;;;;;;;10.70;4.10;;;;;;;-145.01;100.00;64805.59;4993909;28;20110;-64
2021/08/21 10:17:06;;;;;;;5.57;3.78;;;;;;;-145.01;100.00;64805.59;4993555;28;20454;-64
2021/08/21 10:19:32;;;;;;;6.28;3.90;;;;;;;-145.01;100.00;64805.59;4993970;28;20105;-64
2021/08/21 10:21:58;;;;;;;7.20;4.00;;;;;;;-145.01;100.00;64805.59;4992321;28;20027;-64
2021/08/21 10:24:32;;;;;;;8.20;3.95;;;;;;;-145.01;100.00;64805.59;4993899;28;20137;-64
2021/08/21 10:27:15;;;;;;;5.75;4.13;;;;;;;-145.01;100.00;64805.59;4993383;28;20073;-64
2021/08/21 10:29:58;;;;;;;7.40;3.80;;;;;;;-145.01;100.00;64805.59;4978079;28;20491;-64
2021/08/21 10:32:34;;;;;;;9.48;4.28;;;;;;;-145.01;100.00;64805.59;4993359;28;20053;-64
2021/08/21 10:35:00;;;;;;;6.95;4.10;;;;;;;-145.01;100.00;64805.59;4993705;28;20026;-64
2021/08/21 10:37:44;;;;;;;6.30;3.83;;;;;;;-145.01;100.00;64805.59;4993188;28;20515;-64
2021/08/21 10:40:27;;;;;;;5.10;3.60;;;;;;;-145.01;100.00;64805.59;4993339;28;20076;-64
2021/08/21 10:42:56;;;;;;;8.13;3.65;;;;;;;-145.01;100.00;64805.59;4993344;28;20428;-64
2021/08/21 10:45:40;;;;;;;7.72;4.20;;;;;;;-145.01;100.00;64805.59;4992965;28;20058;-64
2021/08/21 10:48:28;;;;;;;7.32;3.60;;;;;;;-145.01;100.00;64805.59;4992127;28;20027;-65
2021/08/21 10:50:53;;;;;;;5.80;3.90;;;;;;;-145.01;100.00;64805.59;4995637;28;20043;-65
2021/08/21 10:53:23;;;;;;;8.32;3.88;;;;;;;-145.01;100.00;64805.59;4993408;28;20110;-64
2021/08/21 10:55:48;;;;;;;5.65;3.50;;;;;;;-145.01;100.00;64805.59;4992993;28;20030;-67
2021/08/21 10:58:17;;;;;;;4.75;3.00;;;;;;;-145.01;100.00;64805.59;4992034;28;20080;-64
2021/08/21 11:00:47;;;;;;;6.07;3.20;;;;;;;-145.01;100.00;64805.59;4992986;28;20108;-64
2021/08/21 11:03:17;;;;;;;6.63;3.53;;;;;;;-145.01;100.00;64805.59;4993335;28;20089;-64